To NAV CANADA Home Page Login to a new session Search on AWWS site Feedback and Comments Disclaimer Vers la page française équivalente Tips FAQ What's new on the site To the Forecasts and Observations / NOTAM section To "File a Flight Plan" website Publications and other links Update of the User's profile FIC Telephone Numbers My Weather Data Folder Route Weather Data Regional Weather Data Local Weather Data To the Forecasts and Observations / NOTAM section
Request Generated 10/01/2016 at 20:33:31 UTC . Weather information available at that time is displayed.

METAR/TAF

WHITEHORSE/ERIK NIELSEN INTL/YT    

METAR CYXY 012000Z 14011G16KT 40SM FEW100 05/M07 A3012 RMK AC1 AC TR
SLP238=
METAR CYXY 011900Z 16009KT 40SM FEW100 03/M07 A3015 RMK AC1 AC TR
SLP251=
METAR CYXY 011800Z 17011KT 40SM FEW100 00/M07 A3018 RMK AC1 AC TR
SLP261=

TAF CYXY 011739Z 0118/0206 16008KT P6SM FEW100
RMK NXT FCST BY 020000Z=
Your time UTC time
Weather data provided by Environment Canada and NAV CANADA